Time;durP1;ratioP1;P1;durP2;ratioP2;P2;SDS_P1;SDS_P2;PMS_P1;PMS_P2;Temp;Humidity;BMP_temperature;BMP_pressure;BME280_temperature;BME280_humidity;BME280_pressure;Samples;Min_cycle;Max_cycle;Signal;HPM_P1;HPM_P2
2022/07/05 00:00:01;;;;;;;9.93;6.60;;;;;;;14.58;78.70;102103.31;4990993;28;20158;-75
2022/07/05 00:02:26;;;;;;;11.00;7.00;;;;;;;14.54;79.25;102109.47;4977177;28;20026;-75
2022/07/05 00:04:51;;;;;;;13.05;6.75;;;;;;;14.51;79.46;102109.56;4977040;28;20022;-76
2022/07/05 00:07:17;;;;;;;10.25;6.93;;;;;;;14.43;79.46;102115.81;4986104;28;20113;-76
2022/07/05 00:09:44;;;;;;;10.20;6.82;;;;;;;14.35;80.08;102110.69;4989467;28;20081;-76
2022/07/05 00:12:12;;;;;;;10.65;7.32;;;;;;;14.24;80.35;102107.44;4991058;28;20507;-76
2022/07/05 00:14:38;;;;;;;12.05;7.20;;;;;;;14.23;80.68;102106.56;4991974;28;20029;-75
2022/07/05 00:17:03;;;;;;;11.30;6.85;;;;;;;14.20;80.46;102114.44;4994910;28;20026;-76
2022/07/05 00:19:28;;;;;;;12.13;7.40;;;;;;;14.17;80.28;102117.13;4990507;28;20485;-76
2022/07/05 00:21:54;;;;;;;10.93;7.45;;;;;;;14.12;80.58;102113.75;4970064;28;20082;-75
2022/07/05 00:24:19;;;;;;;13.23;7.55;;;;;;;14.06;80.75;102111.22;4972325;28;20417;-75
2022/07/05 00:26:45;;;;;;;12.63;7.30;;;;;;;14.03;81.25;102113.03;4972308;28;20110;-75
2022/07/05 00:29:10;;;;;;;12.30;7.65;;;;;;;13.97;81.71;102111.41;4944827;28;20051;-81
2022/07/05 00:31:35;;;;;;;12.05;7.13;;;;;;;13.97;82.36;102105.31;4970175;28;20035;-81
2022/07/05 00:34:01;;;;;;;13.90;7.53;;;;;;;13.88;82.11;102102.88;4972345;28;20102;-82
2022/07/05 00:36:26;;;;;;;11.02;7.47;;;;;;;13.86;82.07;102105.50;4972325;28;20106;-82
2022/07/05 00:38:51;;;;;;;13.60;7.57;;;;;;;13.82;82.15;102103.84;4959810;28;20028;-81
2022/07/05 00:41:17;;;;;;;12.52;7.95;;;;;;;13.78;82.25;102096.97;4971199;28;20031;-82
2022/07/05 00:44:05;;;;;;;14.02;8.30;;;;;;;13.79;81.45;102104.75;4972037;28;20019;-82
2022/07/05 00:46:32;;;;;;;11.57;7.68;;;;;;;13.74;82.99;102105.72;4961785;28;20034;-82
2022/07/05 00:48:58;;;;;;;12.73;7.95;;;;;;;13.68;83.52;102104.06;4970823;28;20019;-81
2022/07/05 00:51:25;;;;;;;14.07;8.43;;;;;;;13.61;83.37;102089.41;4970389;28;20035;-82
2022/07/05 00:53:51;;;;;;;12.07;7.85;;;;;;;13.56;83.63;102096.44;4971920;28;20544;-81
2022/07/05 00:56:19;;;;;;;11.95;7.90;;;;;;;13.51;83.80;102105.22;4971704;28;20045;-81
2022/07/05 00:58:44;;;;;;;12.18;7.85;;;;;;;13.52;83.96;102106.94;4939856;28;20024;-81
2022/07/05 01:01:10;;;;;;;12.27;7.97;;;;;;;13.51;84.30;102102.63;4970773;28;20067;-81
2022/07/05 01:03:36;;;;;;;13.20;8.05;;;;;;;13.49;84.41;102104.38;4952813;28;20027;-82
2022/07/05 01:06:05;;;;;;;16.92;8.02;;;;;;;13.50;84.57;102106.13;4971095;28;20035;-81
2022/07/05 01:08:33;;;;;;;12.73;7.63;;;;;;;13.42;84.68;102112.28;4971609;28;20137;-82
2022/07/05 01:10:59;;;;;;;13.65;7.78;;;;;;;13.37;84.90;102116.69;4976965;28;20030;-82
2022/07/05 01:13:25;;;;;;;13.73;8.30;;;;;;;13.29;84.99;102113.38;4971049;28;20457;-81
2022/07/05 01:15:51;;;;;;;12.63;7.93;;;;;;;13.26;85.19;102118.59;4970741;28;20474;-82
2022/07/05 01:18:19;;;;;;;12.75;8.68;;;;;;;13.18;85.15;102104.81;4967678;28;20051;-82
2022/07/05 01:20:48;;;;;;;14.60;8.63;;;;;;;13.15;85.32;102107.50;4970386;28;20125;-81
2022/07/05 01:23:13;;;;;;;13.65;8.23;;;;;;;13.10;85.86;102108.41;4970981;28;20525;-81
2022/07/05 01:25:39;;;;;;;16.27;8.98;;;;;;;13.10;86.18;102116.22;4970654;28;20023;-81
2022/07/05 01:28:04;;;;;;;15.55;8.35;;;;;;;13.02;85.67;102100.69;4970660;28;20467;-81
2022/07/05 01:30:34;;;;;;;15.13;8.57;;;;;;;13.03;86.73;102108.47;4971111;28;20027;-81
2022/07/05 01:32:59;;;;;;;14.63;8.60;;;;;;;12.99;86.88;102109.41;4968550;28;20026;-81
2022/07/05 01:35:24;;;;;;;14.00;8.87;;;;;;;12.97;86.85;102105.94;4970305;28;20442;-82
2022/07/05 01:37:51;;;;;;;13.68;8.75;;;;;;;12.96;86.99;102106.00;4971307;28;20277;-81
2022/07/05 01:40:18;;;;;;;15.07;9.27;;;;;;;12.91;86.92;102098.22;4974743;28;20045;-76
2022/07/05 01:42:44;;;;;;;15.50;9.57;;;;;;;12.89;86.98;102109.56;4953509;28;20022;-75
2022/07/05 01:45:09;;;;;;;17.60;10.35;;;;;;;12.84;87.24;102116.53;4970821;28;20085;-75
2022/07/05 01:47:45;;;;;;;18.63;10.82;;;;;;;12.81;87.37;102108.78;4969225;28;20450;-75
2022/07/05 01:50:12;;;;;;;14.32;9.32;;;;;;;12.79;87.71;102105.34;4969276;28;20030;-75
2022/07/05 01:52:41;;;;;;;14.98;9.50;;;;;;;12.81;87.51;102107.06;4970747;28;20038;-75
2022/07/05 01:55:07;;;;;;;16.23;9.40;;;;;;;12.80;87.82;102104.47;4975154;28;20038;-75
2022/07/05 01:57:32;;;;;;;15.30;9.52;;;;;;;12.78;87.63;102109.69;4970710;28;20035;-75
2022/07/05 01:59:58;;;;;;;13.77;9.02;;;;;;;12.73;87.36;102100.22;4947617;28;20026;-75
2022/07/05 02:02:23;;;;;;;17.37;10.27;;;;;;;12.72;87.90;102111.50;4968765;28;20039;-75
2022/07/05 02:04:48;;;;;;;15.98;10.00;;;;;;;12.73;87.60;102098.47;4969337;28;20376;-75
2022/07/05 02:07:14;;;;;;;15.50;10.35;;;;;;;12.69;87.79;102096.81;4969943;28;20031;-75
2022/07/05 02:09:39;;;;;;;16.30;10.73;;;;;;;12.65;88.05;102100.31;4969660;28;20457;-81
2022/07/05 02:12:06;;;;;;;19.65;11.45;;;;;;;12.60;88.10;102100.38;4970431;28;20445;-81
2022/07/05 02:14:31;;;;;;;17.25;11.10;;;;;;;12.54;88.26;102100.44;4962442;28;20118;-81
2022/07/05 02:16:57;;;;;;;18.60;11.57;;;;;;;12.49;88.52;102102.22;4970864;28;20110;-81
2022/07/05 02:19:23;;;;;;;18.42;11.60;;;;;;;12.42;88.53;102100.56;4968734;28;20070;-81
2022/07/05 02:21:48;;;;;;;22.15;12.50;;;;;;;12.47;89.12;102096.19;4976490;28;20050;-81
2022/07/05 02:24:14;;;;;;;20.85;12.48;;;;;;;12.39;88.87;102105.81;4975705;28;20038;-81
2022/07/05 02:26:39;;;;;;;19.98;12.63;;;;;;;12.38;89.13;102098.88;4970462;28;20031;-81
2022/07/05 02:29:05;;;;;;;18.92;12.38;;;;;;;12.33;88.97;102100.69;4969952;28;20027;-81
2022/07/05 02:31:31;;;;;;;17.92;11.80;;;;;;;12.27;88.63;102105.94;4969795;28;20034;-81
2022/07/05 02:33:57;;;;;;;20.15;12.77;;;;;;;12.23;89.39;102102.50;4971051;28;20033;-81
2022/07/05 02:36:23;;;;;;;18.50;12.40;;;;;;;12.20;89.61;102101.69;4982825;28;20023;-81
2022/07/05 02:38:49;;;;;;;21.38;12.98;;;;;;;12.20;89.62;102109.50;4970677;28;20051;-81
2022/07/05 02:41:14;;;;;;;20.08;12.73;;;;;;;12.17;89.68;102097.38;4974236;28;20027;-81
2022/07/05 02:43:40;;;;;;;20.65;12.65;;;;;;;12.19;90.24;102107.75;4973409;28;20086;-81
2022/07/05 02:46:07;;;;;;;22.83;12.73;;;;;;;12.19;90.25;102102.56;4973485;28;20438;-81
2022/07/05 02:48:34;;;;;;;24.05;12.70;;;;;;;12.14;90.48;102105.22;4973453;28;20027;-81
2022/07/05 02:50:59;;;;;;;21.30;13.10;;;;;;;12.12;90.32;102111.28;4983919;28;20029;-81
2022/07/05 02:53:25;;;;;;;18.83;12.93;;;;;;;12.13;90.80;102111.28;4973730;28;20054;-81
2022/07/05 02:55:51;;;;;;;19.67;13.18;;;;;;;12.16;90.33;102118.16;4974290;28;20026;-81
2022/07/05 02:58:19;;;;;;;19.98;12.73;;;;;;;12.21;91.12;102119.84;4972200;28;20053;-81
2022/07/05 03:00:47;;;;;;;21.67;12.82;;;;;;;12.23;91.30;102120.69;4956641;28;20147;-81
2022/07/05 03:03:12;;;;;;;18.83;12.82;;;;;;;12.27;91.21;102117.22;4972341;28;20030;-81
2022/07/05 03:05:38;;;;;;;22.38;13.07;;;;;;;12.27;91.30;102122.41;4978913;28;20035;-81
2022/07/05 03:08:03;;;;;;;20.38;12.55;;;;;;;12.27;91.24;102122.41;4973865;28;20030;-81
2022/07/05 03:10:29;;;;;;;21.98;13.63;;;;;;;12.28;91.14;102118.06;4971190;28;20022;-81
2022/07/05 03:12:54;;;;;;;22.10;13.77;;;;;;;12.26;91.10;102115.47;4973727;28;20026;-81
2022/07/05 03:15:19;;;;;;;21.85;13.38;;;;;;;12.28;91.34;102123.28;4967607;28;20015;-81
2022/07/05 03:17:46;;;;;;;22.00;12.68;;;;;;;12.26;90.85;102127.63;4972599;28;20133;-81
2022/07/05 03:20:11;;;;;;;19.95;12.68;;;;;;;12.25;90.99;102128.50;4980086;28;20101;-81
2022/07/05 03:22:36;;;;;;;24.02;12.98;;;;;;;12.22;91.04;102134.56;4975588;28;20039;-81
2022/07/05 03:25:02;;;;;;;21.77;13.57;;;;;;;12.19;90.93;102134.63;4972749;28;20019;-81
2022/07/05 03:27:28;;;;;;;19.67;12.75;;;;;;;12.17;90.92;102135.50;4973860;28;20281;-81
2022/07/05 03:29:53;;;;;;;20.92;13.27;;;;;;;12.15;91.21;102132.03;4973519;28;20427;-81
2022/07/05 03:32:18;;;;;;;23.10;12.82;;;;;;;12.09;91.46;102125.16;4972736;28;20086;-82
2022/07/05 03:34:44;;;;;;;20.52;12.82;;;;;;;12.07;91.15;102132.13;4971209;28;20091;-81
2022/07/05 03:37:09;;;;;;;20.80;13.25;;;;;;;12.06;91.14;102134.75;4955282;28;20615;-81
2022/07/05 03:39:34;;;;;;;20.45;13.30;;;;;;;12.04;92.05;102136.50;4972566;28;20486;-83
2022/07/05 03:42:00;;;;;;;20.48;12.80;;;;;;;12.07;92.16;102149.47;4972667;28;20057;-81
2022/07/05 03:44:26;;;;;;;20.48;13.13;;;;;;;12.06;92.20;102138.22;4972672;28;20031;-81
2022/07/05 03:46:52;;;;;;;19.67;13.05;;;;;;;12.11;92.71;102138.16;4973190;28;20106;-81
2022/07/05 03:49:17;;;;;;;22.42;13.35;;;;;;;12.19;93.40;102132.03;4971691;28;20019;-82
2022/07/05 03:51:42;;;;;;;22.15;13.20;;;;;;;12.23;92.97;102125.91;4973436;28;20062;-81
2022/07/05 03:54:08;;;;;;;22.15;12.95;;;;;;;12.27;92.36;102131.94;4972432;28;20110;-82
2022/07/05 03:56:33;;;;;;;21.55;12.88;;;;;;;12.31;92.43;102140.56;4972346;28;20088;-81
2022/07/05 03:58:58;;;;;;;22.00;13.43;;;;;;;12.33;92.48;102144.88;4955419;28;20473;-81
2022/07/05 04:01:24;;;;;;;22.33;13.75;;;;;;;12.39;92.63;102143.94;4973028;28;20055;-82
2022/07/05 04:03:49;;;;;;;19.58;13.02;;;;;;;12.43;92.75;102150.84;4968782;28;20046;-81
2022/07/05 04:06:14;;;;;;;19.63;13.20;;;;;;;12.45;93.16;102142.16;4971904;28;20027;-82
2022/07/05 04:08:40;;;;;;;22.88;13.57;;;;;;;12.54;93.13;102154.19;4972887;28;20745;-82
2022/07/05 04:11:06;;;;;;;21.95;14.27;;;;;;;12.60;93.04;102157.59;4954261;28;20019;-81
2022/07/05 04:13:31;;;;;;;21.83;13.73;;;;;;;12.68;92.89;102157.50;4972210;28;20019;-82
2022/07/05 04:15:56;;;;;;;21.25;13.48;;;;;;;12.71;92.75;102156.59;4970468;28;20035;-82
2022/07/05 04:18:22;;;;;;;22.15;14.05;;;;;;;12.74;92.41;102153.97;4969643;28;20022;-82
2022/07/05 04:20:48;;;;;;;22.92;13.57;;;;;;;12.80;92.15;102153.91;4973600;28;20058;-82
2022/07/05 04:23:13;;;;;;;22.92;14.40;;;;;;;12.87;92.40;102156.41;4971853;28;20058;-82
2022/07/05 04:25:39;;;;;;;22.10;13.93;;;;;;;12.91;92.31;102152.00;4985738;28;20037;-81
2022/07/05 04:28:05;;;;;;;22.80;14.23;;;;;;;12.96;91.90;102158.91;4978576;28;20553;-81
2022/07/05 04:30:30;;;;;;;22.52;14.02;;;;;;;13.05;92.41;102153.56;4972511;28;20015;-82
2022/07/05 04:32:57;;;;;;;25.25;14.45;;;;;;;13.12;91.88;102156.94;4971303;28;20022;-82
2022/07/05 04:35:22;;;;;;;27.30;14.45;;;;;;;13.16;90.26;102161.28;4969643;28;20037;-82
2022/07/05 04:37:48;;;;;;;22.42;14.20;;;;;;;13.22;91.05;102156.00;4966551;28;20031;-82
2022/07/05 04:40:13;;;;;;;22.08;14.45;;;;;;;13.25;90.78;102153.34;4969841;28;20041;-82
2022/07/05 04:42:39;;;;;;;24.20;15.15;;;;;;;13.35;91.23;102164.50;4950837;28;20053;-82
2022/07/05 04:45:05;;;;;;;23.75;14.70;;;;;;;13.38;91.35;102162.69;4985827;28;20034;-82
2022/07/05 04:47:31;;;;;;;21.88;14.82;;;;;;;13.46;90.93;102170.41;4969660;28;20041;-82
2022/07/05 04:49:58;;;;;;;25.67;15.50;;;;;;;13.53;91.74;102164.22;4955518;28;20015;-82
2022/07/05 04:52:25;;;;;;;24.98;15.98;;;;;;;13.62;92.14;102168.44;4980230;28;20397;-82
2022/07/05 04:54:50;;;;;;;25.88;16.30;;;;;;;13.66;91.06;102157.94;4976969;28;20553;-81
2022/07/05 04:57:16;;;;;;;23.92;15.45;;;;;;;13.75;91.53;102159.56;4975122;28;20589;-82
2022/07/05 04:59:41;;;;;;;26.05;16.45;;;;;;;13.85;91.64;102154.16;4976690;28;20071;-82
2022/07/05 05:02:06;;;;;;;25.33;15.75;;;;;;;13.88;91.34;102155.88;4973627;28;20367;-82
2022/07/05 05:04:32;;;;;;;24.77;16.13;;;;;;;13.91;89.00;102154.97;4969599;28;20063;-82
2022/07/05 05:06:58;;;;;;;24.95;15.88;;;;;;;13.93;90.00;102147.97;4970481;28;20081;-82
2022/07/05 05:09:23;;;;;;;25.42;16.52;;;;;;;14.01;89.65;102154.78;4969082;28;20039;-82
2022/07/05 05:11:49;;;;;;;29.98;16.52;;;;;;;14.11;90.20;102160.69;4975957;28;20086;-82
2022/07/05 05:14:14;;;;;;;24.65;16.35;;;;;;;14.17;89.92;102156.25;4970576;28;20033;-82
2022/07/05 05:16:40;;;;;;;28.67;17.05;;;;;;;14.23;89.64;102157.88;4956970;28;20022;-82
2022/07/05 05:19:05;;;;;;;26.98;15.70;;;;;;;14.28;88.10;102156.03;4969971;28;20046;-82
2022/07/05 05:21:30;;;;;;;27.98;17.33;;;;;;;14.31;87.61;102160.34;4984133;28;20556;-82
2022/07/05 05:23:56;;;;;;;28.85;17.35;;;;;;;14.41;88.75;102169.75;4952266;28;20030;-82
2022/07/05 05:26:21;;;;;;;26.40;17.30;;;;;;;14.46;88.82;102168.81;4976068;28;20067;-82
2022/07/05 05:28:47;;;;;;;27.35;17.15;;;;;;;14.54;87.45;102179.06;4971688;28;20049;-82
2022/07/05 05:31:12;;;;;;;26.30;16.63;;;;;;;14.61;87.96;102181.53;4959566;28;20034;-82
2022/07/05 05:33:37;;;;;;;27.65;17.30;;;;;;;14.72;87.89;102186.56;4978895;28;20153;-82
2022/07/05 05:36:03;;;;;;;28.40;17.80;;;;;;;14.81;88.97;102177.66;4978002;28;20023;-82
2022/07/05 05:38:28;;;;;;;27.95;17.77;;;;;;;14.92;88.61;102176.59;4980776;28;20744;-82
2022/07/05 05:40:54;;;;;;;30.90;17.73;;;;;;;15.02;87.27;102187.69;4968473;28;20026;-82
2022/07/05 05:43:19;;;;;;;27.75;16.83;;;;;;;15.14;87.28;102190.06;4951392;28;20355;-82
2022/07/05 05:45:44;;;;;;;27.58;17.60;;;;;;;15.23;88.24;102176.78;4972456;28;20022;-82
2022/07/05 05:48:10;;;;;;;28.40;17.17;;;;;;;15.37;87.86;102185.19;4955390;28;20198;-82
2022/07/05 05:50:38;;;;;;;23.90;16.52;;;;;;;15.47;87.21;102183.25;4960014;28;20026;-82
2022/07/05 05:53:04;;;;;;;26.90;16.88;;;;;;;15.58;86.11;102188.25;4974996;28;20040;-82
2022/07/05 05:55:30;;;;;;;27.55;16.25;;;;;;;15.68;86.63;102193.25;4970632;28;20046;-83
2022/07/05 05:57:59;;;;;;;25.70;15.93;;;;;;;15.78;85.76;102196.47;4974602;28;20042;-82
2022/07/05 06:00:25;;;;;;;25.35;15.90;;;;;;;15.88;84.89;102191.91;4978309;28;20046;-82
2022/07/05 06:02:51;;;;;;;28.58;16.20;;;;;;;15.98;85.78;102194.25;4970951;28;20030;-82
2022/07/05 06:05:17;;;;;;;27.65;16.10;;;;;;;16.10;85.30;102196.56;4977296;28;20077;-82
2022/07/05 06:07:51;;;;;;;26.75;16.60;;;;;;;16.19;82.72;102196.34;4959510;28;20113;-83
2022/07/05 06:10:23;;;;;;;26.05;16.35;;;;;;;16.28;82.46;102197.88;4970962;28;20026;-83
2022/07/05 06:12:49;;;;;;;25.65;15.60;;;;;;;16.41;82.32;102201.88;4947887;28;20438;-82
2022/07/05 06:15:15;;;;;;;24.63;16.13;;;;;;;16.54;80.50;102205.03;4963111;28;20023;-82
2022/07/05 06:17:40;;;;;;;24.77;15.38;;;;;;;16.65;80.63;102199.56;4969215;28;20046;-82
2022/07/05 06:20:26;;;;;;;24.63;15.05;;;;;;;16.80;80.86;102210.44;4971423;28;20066;-82
2022/07/05 06:22:52;;;;;;;24.65;15.70;;;;;;;16.84;81.14;102209.47;4981353;28;20058;-82
2022/07/05 06:25:18;;;;;;;25.30;16.15;;;;;;;16.93;81.40;102198.72;4987930;28;20413;-82
2022/07/05 06:27:47;;;;;;;24.35;16.10;;;;;;;17.05;79.75;102209.78;4972454;28;20495;-82
2022/07/05 06:30:16;;;;;;;22.00;15.48;;;;;;;17.15;79.07;102204.22;4989847;28;20429;-83
2022/07/05 06:32:43;;;;;;;27.48;15.93;;;;;;;17.25;78.20;102216.16;4988161;28;20035;-83
2022/07/05 06:35:09;;;;;;;24.80;15.55;;;;;;;17.30;77.05;102218.63;4968309;28;20042;-82
2022/07/05 06:37:46;;;;;;;23.35;14.93;;;;;;;17.42;77.05;102214.78;4968263;28;20124;-82
2022/07/05 06:40:17;;;;;;;20.00;14.45;;;;;;;17.48;75.34;102215.44;4986100;28;20097;-83
2022/07/05 06:42:42;;;;;;;21.05;13.85;;;;;;;17.61;76.03;102216.81;4992170;28;20050;-82
2022/07/05 06:45:08;;;;;;;21.88;14.00;;;;;;;17.69;74.86;102213.97;4988214;28;20080;-83
2022/07/05 06:47:34;;;;;;;20.40;13.85;;;;;;;17.76;76.64;102218.97;4987479;28;20034;-82
2022/07/05 06:50:00;;;;;;;21.48;13.63;;;;;;;17.84;75.85;102220.50;4971575;28;20033;-83
2022/07/05 06:52:25;;;;;;;19.95;13.23;;;;;;;17.90;72.90;102225.53;4998198;28;20026;-83
2022/07/05 06:54:50;;;;;;;19.58;13.20;;;;;;;17.95;73.96;102224.47;4989791;28;20022;-82
2022/07/05 06:57:23;;;;;;;16.35;12.20;;;;;;;18.02;74.79;102215.50;4990441;28;20409;-83
2022/07/05 06:59:49;;;;;;;21.20;12.38;;;;;;;18.09;72.09;102221.41;4980172;28;20113;-83
2022/07/05 07:02:14;;;;;;;21.20;12.57;;;;;;;18.04;73.32;102223.34;4989595;28;20058;-83
2022/07/05 07:04:40;;;;;;;19.85;13.43;;;;;;;18.00;71.21;102222.59;4989652;28;20057;-83
2022/07/05 07:09:17;;;;;;;19.75;13.63;;;;;;;18.01;73.23;102228.69;4970986;28;20477;-83
2022/07/05 07:10:01;;;;;;;21.73;14.27;;;;;;;18.02;75.46;102230.38;4989583;28;20089;-83
2022/07/05 07:12:28;;;;;;;21.27;14.10;;;;;;;18.13;73.92;102220.41;4972059;28;20030;-83
2022/07/05 07:14:54;;;;;;;18.30;13.65;;;;;;;18.27;72.40;102220.81;4987526;28;20444;-83
2022/07/05 07:17:20;;;;;;;21.17;13.13;;;;;;;18.39;74.39;102216.91;4986564;28;20472;-83
2022/07/05 07:19:45;;;;;;;21.45;13.40;;;;;;;18.53;71.62;102218.16;4989843;28;20054;-83
2022/07/05 07:22:10;;;;;;;21.00;14.33;;;;;;;18.73;71.05;102225.34;4993439;28;20181;-83
2022/07/05 07:24:36;;;;;;;19.37;13.27;;;;;;;18.85;72.05;102230.16;4993126;28;20930;-83
2022/07/05 07:27:04;;;;;;;18.85;12.10;;;;;;;19.04;69.77;102226.91;4975313;28;20289;-83
2022/07/05 07:29:31;;;;;;;18.27;12.00;;;;;;;19.13;69.38;102231.78;4984952;28;20037;-83
2022/07/05 07:31:58;;;;;;;20.02;11.43;;;;;;;19.27;70.50;102233.00;4975453;28;20117;-83
2022/07/05 07:34:24;;;;;;;18.13;12.20;;;;;;;19.33;67.83;102227.50;4975233;28;20033;-83
2022/07/05 07:36:51;;;;;;;22.63;11.77;;;;;;;19.46;68.05;102227.91;4975210;28;20022;-83
2022/07/05 07:39:17;;;;;;;15.85;10.95;;;;;;;19.52;69.30;102235.56;4984415;28;20027;-83
2022/07/05 07:41:42;;;;;;;15.93;10.98;;;;;;;19.65;70.83;102231.53;4975092;28;20030;-83
2022/07/05 07:44:07;;;;;;;16.67;11.27;;;;;;;19.74;70.11;102232.97;4992829;28;20245;-83
2022/07/05 07:46:33;;;;;;;17.30;11.15;;;;;;;19.81;71.56;102234.44;4992622;28;20076;-83
2022/07/05 07:48:58;;;;;;;16.08;11.27;;;;;;;19.93;68.23;102230.44;4987494;28;20034;-83
2022/07/05 07:51:23;;;;;;;16.42;10.32;;;;;;;20.09;69.48;102240.28;4992739;28;20088;-83
2022/07/05 07:53:49;;;;;;;19.15;10.32;;;;;;;20.22;67.70;102239.78;4992745;28;20065;-83
2022/07/05 07:56:14;;;;;;;16.92;10.68;;;;;;;20.39;67.33;102232.94;4978680;28;20077;-83
2022/07/05 07:58:39;;;;;;;17.35;10.93;;;;;;;20.55;67.11;102235.75;4978833;28;20026;-84
2022/07/05 08:01:10;;;;;;;19.00;10.43;;;;;;;20.73;67.62;102231.47;4974911;28;20416;-83
2022/07/05 08:03:36;;;;;;;15.05;8.88;;;;;;;20.83;68.33;102235.41;4974785;28;20100;-83
2022/07/05 08:06:01;;;;;;;18.05;10.18;;;;;;;20.96;68.28;102233.06;4974859;28;20533;-83
2022/07/05 08:08:27;;;;;;;13.90;8.77;;;;;;;21.07;63.23;102242.22;4977480;28;20121;-84
2022/07/05 08:10:52;;;;;;;14.73;8.52;;;;;;;21.13;61.75;102238.47;4992250;28;20061;-84
2022/07/05 08:13:17;;;;;;;11.63;7.70;;;;;;;21.16;64.19;102240.97;4990379;28;20053;-83
2022/07/05 08:15:42;;;;;;;12.17;6.70;;;;;;;21.27;64.62;102236.09;4973126;28;20282;-84
2022/07/05 08:23:35;;;;;;;16.05;9.70;;;;;;;21.67;61.75;102245.63;4992422;28;20409;-83
2022/07/05 08:26:01;;;;;;;14.10;8.57;;;;;;;21.81;63.99;102240.53;4991597;28;20222;-84
2022/07/05 08:28:26;;;;;;;15.93;8.00;;;;;;;21.95;64.89;102242.50;4990841;28;20034;-83
2022/07/05 08:30:52;;;;;;;16.20;8.30;;;;;;;22.11;62.78;102240.00;4974073;28;20321;-84
2022/07/05 08:33:17;;;;;;;15.75;8.20;;;;;;;22.15;63.77;102247.69;4991762;28;20034;-84
2022/07/05 08:35:42;;;;;;;16.30;8.00;;;;;;;22.18;60.73;102251.94;4974316;28;20062;-83
2022/07/05 08:38:08;;;;;;;12.95;7.43;;;;;;;22.16;60.85;102253.84;4990607;28;20050;-84
2022/07/05 08:40:38;;;;;;;10.95;6.88;;;;;;;21.98;62.59;102247.66;4991599;28;20113;-83
2022/07/05 08:43:06;;;;;;;12.40;7.10;;;;;;;21.87;61.65;102240.22;4991476;28;20026;-84
2022/07/05 08:45:32;;;;;;;13.70;7.28;;;;;;;22.00;65.57;102240.50;4974162;28;20029;-84
2022/07/05 08:48:00;;;;;;;15.40;7.30;;;;;;;22.65;60.76;102247.78;4972775;28;20031;-84
2022/07/05 08:50:26;;;;;;;13.93;8.25;;;;;;;22.94;56.05;102240.97;4991004;28;20041;-83
2022/07/05 08:52:52;;;;;;;14.02;7.35;;;;;;;23.04;56.69;102247.50;4991264;28;20041;-84
2022/07/05 08:55:18;;;;;;;12.43;6.88;;;;;;;23.18;58.72;102234.38;4991373;28;20033;-84
2022/07/05 08:57:43;;;;;;;14.40;7.80;;;;;;;23.32;57.44;102233.63;4990211;28;20033;-85
2022/07/05 09:00:10;;;;;;;16.77;8.18;;;;;;;23.45;58.81;102236.44;4972760;28;20034;-85
2022/07/05 09:02:35;;;;;;;11.38;7.90;;;;;;;23.61;56.29;102234.66;4991282;28;20029;-84
2022/07/05 09:05:01;;;;;;;13.05;8.23;;;;;;;23.64;54.82;102229.22;4973780;28;20026;-84
2022/07/05 09:07:32;;;;;;;13.55;7.65;;;;;;;23.49;55.06;102238.84;4989760;28;20034;-84
2022/07/05 09:09:59;;;;;;;14.15;7.93;;;;;;;23.21;54.27;102234.19;4991200;28;20062;-78
2022/07/05 09:12:25;;;;;;;15.07;7.32;;;;;;;23.38;55.51;102243.00;4973154;28;20356;-79
2022/07/05 09:14:51;;;;;;;12.32;6.40;;;;;;;23.73;55.83;102231.34;4985341;28;20102;-79
2022/07/05 09:17:16;;;;;;;12.30;5.10;;;;;;;23.89;53.21;102236.59;4989664;28;20094;-79
2022/07/05 09:19:42;;;;;;;12.32;6.80;;;;;;;24.08;55.40;102231.97;4990740;28;20165;-79
2022/07/05 09:22:08;;;;;;;11.48;6.25;;;;;;;24.30;51.96;102237.72;4991225;28;20049;-79
2022/07/05 09:24:44;;;;;;;7.15;3.63;;;;;;;24.28;51.20;102231.69;4989809;28;20317;-79
2022/07/05 09:27:10;;;;;;;9.68;4.60;;;;;;;24.54;52.80;102231.94;4976524;28;20029;-79
2022/07/05 09:29:35;;;;;;;9.93;5.65;;;;;;;24.91;52.71;102235.84;4979559;28;20022;-79
2022/07/05 09:32:00;;;;;;;12.10;6.28;;;;;;;25.07;47.64;102234.81;4990722;28;20105;-79
2022/07/05 09:34:29;;;;;;;9.02;6.00;;;;;;;25.26;50.66;102237.16;4973410;28;20034;-79
2022/07/05 09:36:58;;;;;;;11.00;5.60;;;;;;;25.36;49.29;102232.13;4989704;28;20030;-80
2022/07/05 09:39:29;;;;;;;11.25;6.13;;;;;;;25.34;51.83;102242.00;4983006;28;20037;-80
2022/07/05 09:42:10;;;;;;;10.70;5.10;;;;;;;25.41;51.40;102232.69;4985270;28;20505;-79
2022/07/05 09:44:37;;;;;;;6.20;4.07;;;;;;;25.33;47.79;102232.31;4989761;28;20057;-79
2022/07/05 09:47:12;;;;;;;9.07;4.03;;;;;;;25.69;46.63;102231.81;4990269;28;20026;-79
2022/07/05 09:49:41;;;;;;;8.57;3.40;;;;;;;25.80;41.83;102232.78;4990537;28;20489;-80
2022/07/05 09:52:06;;;;;;;6.07;3.65;;;;;;;25.81;43.75;102239.81;4990527;28;20053;-80
2022/07/05 09:54:32;;;;;;;8.32;4.47;;;;;;;25.79;44.02;102225.81;4972922;28;20022;-79
2022/07/05 09:56:57;;;;;;;5.85;4.28;;;;;;;25.83;41.48;102235.25;4989407;28;20409;-80
2022/07/05 09:59:22;;;;;;;9.55;4.28;;;;;;;25.37;41.92;102229.41;4990367;28;20062;-80
2022/07/05 10:01:48;;;;;;;9.93;4.80;;;;;;;25.15;43.81;102232.56;4990223;28;20060;-80
2022/07/05 10:04:14;;;;;;;7.75;4.80;;;;;;;24.74;44.79;102227.13;4972689;28;20314;-79
2022/07/05 10:06:39;;;;;;;7.88;5.00;;;;;;;24.68;45.87;102226.66;4989131;28;20593;-79
2022/07/05 10:09:05;;;;;;;11.32;4.63;;;;;;;24.95;46.93;102226.78;4990370;28;20014;-79
2022/07/05 10:11:30;;;;;;;8.25;5.30;;;;;;;25.16;45.04;102226.31;4990336;28;20437;-80
2022/07/05 10:13:58;;;;;;;9.70;5.38;;;;;;;25.26;49.10;102223.03;4983972;28;20121;-79
2022/07/05 10:16:23;;;;;;;8.23;4.90;;;;;;;25.31;48.89;102235.09;4982780;28;20033;-79
2022/07/05 10:18:54;;;;;;;10.82;5.88;;;;;;;25.12;43.92;102229.22;4971699;28;20030;-79
2022/07/05 10:21:20;;;;;;;8.75;5.30;;;;;;;24.92;45.92;102240.22;4989828;28;20058;-80
2022/07/05 10:23:47;;;;;;;9.27;5.20;;;;;;;25.00;45.01;102230.84;4989832;28;20057;-80
2022/07/05 10:26:15;;;;;;;10.35;5.13;;;;;;;24.98;43.68;102232.72;4989075;28;20237;-80
2022/07/05 10:28:45;;;;;;;6.78;4.28;;;;;;;24.80;43.80;102236.50;4989265;28;20029;-79
2022/07/05 10:31:12;;;;;;;9.00;5.10;;;;;;;24.72;45.84;102230.81;4990105;28;20030;-80
2022/07/05 10:33:38;;;;;;;8.73;4.78;;;;;;;24.97;47.21;102233.72;4976774;28;20079;-79
2022/07/05 10:36:05;;;;;;;9.20;5.47;;;;;;;25.27;43.88;102228.25;4987873;28;20031;-80
2022/07/05 10:38:35;;;;;;;8.32;5.65;;;;;;;25.40;46.25;102234.50;4990279;28;20053;-86
2022/07/05 10:41:04;;;;;;;7.15;4.90;;;;;;;25.48;45.38;102231.34;4990049;28;20519;-85
2022/07/05 10:43:29;;;;;;;6.78;4.55;;;;;;;25.63;43.01;102243.69;4990030;28;20468;-85
2022/07/05 10:45:55;;;;;;;7.93;4.65;;;;;;;25.71;44.72;102230.75;4971435;28;20105;-85
2022/07/05 10:48:28;;;;;;;6.93;4.50;;;;;;;25.65;42.46;102228.50;4989339;28;20192;-85
2022/07/05 10:50:57;;;;;;;7.88;4.50;;;;;;;25.58;42.88;102235.16;4972809;28;20113;-86
2022/07/05 10:53:28;;;;;;;9.48;5.20;;;;;;;25.68;41.75;102227.44;4972482;28;20022;-85
2022/07/05 10:55:58;;;;;;;8.80;5.22;;;;;;;25.53;43.78;102219.47;4992633;28;20038;-86
2022/07/05 10:58:40;;;;;;;7.78;4.57;;;;;;;25.59;41.97;102220.91;4993413;28;20034;-85
2022/07/05 11:01:12;;;;;;;9.05;5.75;;;;;;;25.77;43.85;102227.69;4993421;28;20066;-85
2022/07/05 11:03:37;;;;;;;10.30;5.20;;;;;;;25.77;42.63;102225.03;4968047;28;20146;-85
2022/07/05 11:06:04;;;;;;;10.73;4.73;;;;;;;25.86;41.02;102229.72;4985757;28;20536;-84
2022/07/05 11:08:32;;;;;;;10.43;4.47;;;;;;;25.79;42.48;102231.13;4993176;28;20356;-86
2022/07/05 11:11:13;;;;;;;6.47;3.80;;;;;;;25.39;42.32;102226.63;4976370;28;20105;-85
2022/07/05 11:13:46;;;;;;;7.18;4.10;;;;;;;24.88;42.58;102234.22;4993029;28;20033;-84
2022/07/05 11:16:38;;;;;;;10.07;4.43;;;;;;;24.92;44.54;102235.78;4993118;28;20030;-85